createdAt,value
2022-11-17T00:03:25.423Z,3.50
2022-11-17T00:13:46.899Z,3.20
2022-11-17T00:19:07.018Z,2.50
2022-11-17T00:24:08.382Z,2.80
2022-11-17T00:29:09.709Z,4.50
2022-11-17T00:39:15.573Z,2.80
2022-11-17T00:44:17.012Z,2.70
2022-11-17T00:49:20.864Z,2.20
2022-11-17T00:54:22.448Z,2.30
2022-11-17T00:59:23.610Z,2.40
2022-11-17T01:09:25.993Z,2.30
2022-11-17T01:14:29.499Z,2.20
2022-11-17T01:19:30.643Z,2.70
2022-11-17T01:29:32.875Z,2.40
2022-11-17T01:34:33.999Z,3.10
2022-11-17T01:45:03.010Z,1.90
2022-11-17T01:50:41.797Z,2.40
2022-11-17T01:55:55.383Z,3.00
2022-11-17T02:00:57.091Z,2.30
2022-11-17T02:06:07.856Z,2.50
2022-11-17T02:11:13.503Z,3.20
2022-11-17T02:16:16.217Z,2.70
2022-11-17T02:21:39.235Z,2.60
2022-11-17T02:27:18.123Z,3.00
2022-11-17T02:32:29.863Z,2.40
2022-11-17T02:38:15.769Z,2.80
2022-11-17T02:43:39.429Z,3.20
2022-11-17T02:48:54.864Z,2.30
2022-11-17T02:53:59.425Z,2.20
2022-11-17T02:59:04.648Z,2.70
2022-11-17T03:04:39.352Z,2.40
2022-11-17T03:09:43.195Z,3.00
2022-11-17T03:14:53.586Z,2.30
2022-11-17T03:20:14.074Z,2.70
2022-11-17T03:25:20.469Z,3.00
2022-11-17T03:30:24.305Z,2.50
2022-11-17T03:35:30.469Z,3.30
2022-11-17T03:40:34.008Z,2.90
2022-11-17T03:45:38.578Z,3.10
2022-11-17T03:51:10.393Z,3.20
2022-11-17T03:56:41.887Z,2.70
2022-11-17T04:01:43.532Z,2.60
2022-11-17T04:06:45.573Z,2.30
2022-11-17T04:12:05.327Z,3.80
2022-11-17T04:17:06.441Z,3.50
2022-11-17T04:37:29.733Z,2.40
2022-11-17T04:47:31.856Z,2.60
2022-11-17T04:57:34.055Z,2.70
2022-11-17T05:07:37.007Z,2.40
2022-11-17T05:12:57.385Z,3.00
2022-11-17T05:17:58.527Z,2.60
2022-11-17T05:28:19.380Z,2.30
2022-11-17T05:33:20.680Z,2.70
2022-11-17T05:38:21.796Z,3.10
2022-11-17T05:48:24.464Z,3.10
2022-11-17T05:53:27.197Z,2.60
2022-11-17T05:58:32.909Z,2.70
2022-11-17T06:03:47.000Z,3.00
2022-11-17T06:08:49.768Z,3.30
2022-11-17T06:13:51.249Z,2.50
2022-11-17T06:19:03.089Z,3.90
2022-11-17T06:24:07.685Z,2.70
2022-11-17T06:29:11.518Z,3.10
2022-11-17T06:34:12.927Z,4.00
2022-11-17T06:39:14.023Z,3.10
2022-11-17T06:49:20.924Z,2.90
2022-11-17T06:54:22.808Z,2.90
2022-11-17T06:59:23.954Z,2.60
2022-11-17T07:09:26.173Z,4.10
2022-11-17T07:14:27.642Z,3.30
2022-11-17T07:24:29.993Z,3.20
2022-11-17T07:29:34.261Z,3.10
2022-11-17T07:34:35.755Z,3.80
2022-11-17T07:44:37.961Z,3.70
2022-11-17T07:54:40.526Z,2.80
2022-11-17T07:59:41.611Z,3.10
2022-11-17T08:09:43.697Z,3.60
2022-11-17T08:19:45.998Z,3.30
2022-11-17T08:24:47.203Z,3.40
2022-11-17T08:34:49.684Z,4.40
2022-11-17T08:44:51.854Z,4.50
2022-11-17T08:49:53.200Z,4.00
2022-11-17T08:54:55.558Z,3.10
2022-11-17T08:59:57.246Z,3.80
2022-11-17T09:04:58.383Z,4.80
2022-11-17T09:15:00.860Z,3.80
2022-11-17T09:25:06.457Z,2.90
2022-11-17T09:30:11.275Z,3.50
2022-11-17T09:35:13.421Z,3.10
2022-11-17T09:40:18.902Z,3.50
2022-11-17T09:45:24.253Z,3.00
2022-11-17T09:50:45.336Z,3.20
2022-11-17T09:55:50.688Z,4.00
2022-11-17T10:00:53.161Z,3.60
2022-11-17T10:05:55.472Z,3.00
2022-11-17T10:10:56.613Z,4.20
2022-11-17T10:21:04.570Z,2.70
2022-11-17T10:26:12.280Z,4.20
2022-11-17T10:31:18.735Z,5.30
2022-11-17T10:36:19.845Z,3.00
2022-11-17T10:47:04.272Z,3.10
2022-11-17T10:52:08.430Z,2.80
2022-11-17T10:57:28.515Z,3.40
2022-11-17T11:02:34.239Z,2.90
2022-11-17T11:07:35.967Z,3.20
2022-11-17T11:13:02.317Z,3.60
2022-11-17T11:18:22.491Z,4.00
2022-11-17T11:23:35.145Z,2.80
2022-11-17T11:28:46.980Z,2.90
2022-11-17T11:34:00.104Z,2.40
2022-11-17T11:39:39.530Z,3.70
2022-11-17T11:44:51.687Z,3.50
2022-11-17T11:50:12.232Z,3.30
2022-11-17T11:55:21.375Z,2.80
2022-11-17T12:00:22.629Z,2.80
2022-11-17T12:05:27.669Z,2.90
2022-11-17T12:10:37.100Z,3.10
2022-11-17T12:15:38.215Z,3.90
2022-11-17T12:25:53.892Z,2.70
2022-11-17T12:31:08.305Z,3.00
2022-11-17T12:36:31.155Z,2.60
2022-11-17T12:41:54.640Z,4.00
2022-11-17T12:47:19.996Z,2.90
2022-11-17T12:52:59.950Z,3.40
2022-11-17T12:58:39.151Z,2.80
2022-11-17T13:04:05.766Z,3.20
2022-11-17T13:09:11.371Z,4.50
2022-11-17T13:14:15.189Z,4.50
2022-11-17T13:19:37.405Z,4.50
2022-11-17T13:24:41.860Z,4.20
2022-11-17T13:29:43.342Z,3.50
2022-11-17T13:39:59.966Z,4.20
2022-11-17T13:45:04.109Z,4.30
2022-11-17T13:50:28.721Z,4.30
2022-11-17T13:55:30.759Z,5.00
2022-11-17T14:00:32.928Z,5.30
2022-11-17T14:05:34.293Z,3.20
2022-11-17T14:10:37.907Z,6.10
2022-11-17T14:15:45.789Z,4.50
2022-11-17T14:20:48.122Z,5.20
2022-11-17T14:30:56.714Z,6.30
2022-11-17T14:35:59.395Z,7.40
2022-11-17T14:41:00.932Z,7.90
2022-11-17T14:46:02.731Z,6.70
2022-11-17T14:51:03.868Z,6.60
2022-11-17T15:01:18.335Z,6.60
2022-11-17T15:06:20.497Z,6.20
2022-11-17T15:11:22.786Z,6.50
2022-11-17T15:16:23.947Z,5.80
2022-11-17T15:21:25.341Z,6.40
2022-11-17T15:26:26.827Z,8.60
2022-11-17T15:31:28.341Z,7.90
2022-11-17T15:36:31.174Z,7.30
2022-11-17T15:41:33.130Z,6.00
2022-11-17T15:46:35.256Z,6.70
2022-11-17T15:51:36.651Z,5.60
2022-11-17T15:56:37.779Z,6.10
2022-11-17T16:06:44.191Z,4.60
2022-11-17T16:11:45.707Z,6.10
2022-11-17T16:16:47.266Z,6.10
2022-11-17T16:21:49.346Z,7.40
2022-11-17T16:26:50.525Z,6.20
2022-11-17T16:31:52.267Z,8.40
2022-11-17T16:36:53.833Z,13.40
2022-11-17T16:41:55.072Z,6.50
2022-11-17T16:51:59.120Z,6.90
2022-11-17T16:57:00.277Z,8.50
2022-11-17T17:02:02.522Z,9.70
2022-11-17T17:07:04.115Z,8.50
2022-11-17T17:12:06.722Z,6.50
2022-11-17T17:17:08.018Z,6.00
2022-11-17T17:22:09.177Z,5.20
2022-11-17T17:32:12.487Z,11.50
2022-11-17T17:37:13.689Z,10.40
2022-11-17T17:42:15.492Z,8.60
2022-11-17T17:47:17.821Z,7.20
2022-11-17T17:52:20.013Z,8.50
2022-11-17T17:57:21.353Z,8.50
2022-11-17T18:07:23.563Z,5.90
2022-11-17T18:12:24.873Z,5.80
2022-11-17T18:17:25.979Z,6.50
2022-11-17T18:27:29.484Z,9.50
2022-11-17T18:32:30.603Z,10.20
2022-11-17T18:37:32.263Z,8.00
2022-11-17T18:42:33.373Z,8.60
2022-11-17T18:47:35.755Z,7.90
2022-11-17T18:52:36.855Z,8.30
2022-11-17T19:02:45.895Z,7.50
2022-11-17T19:07:47.751Z,6.70
2022-11-17T19:12:50.121Z,7.00
2022-11-17T19:17:51.244Z,6.80
2022-11-17T19:22:54.449Z,14.40
2022-11-17T19:27:56.002Z,17.30
2022-11-17T19:32:57.632Z,15.20
2022-11-17T19:37:58.737Z,10.90
2022-11-17T19:43:00.073Z,10.90
2022-11-17T19:53:02.803Z,7.20
2022-11-17T19:58:03.945Z,12.30
2022-11-17T20:03:06.111Z,10.30
2022-11-17T20:13:08.336Z,5.00
2022-11-17T20:18:09.526Z,6.30
2022-11-17T20:23:10.686Z,5.00
2022-11-17T20:28:11.921Z,8.10
2022-11-17T20:33:14.264Z,8.70
2022-11-17T20:38:15.870Z,5.80
2022-11-17T20:43:17.300Z,6.30
2022-11-17T20:53:19.800Z,3.20
2022-11-17T21:03:23.400Z,4.90
2022-11-17T21:08:27.542Z,6.50
2022-11-17T21:13:31.668Z,6.30
2022-11-17T21:18:35.025Z,5.90
2022-11-17T21:23:37.685Z,3.90
2022-11-17T21:28:40.272Z,4.70
2022-11-17T21:33:42.901Z,6.40
2022-11-17T21:38:46.092Z,5.90
2022-11-17T21:43:51.232Z,6.20
2022-11-17T21:48:54.725Z,4.40
2022-11-17T21:53:57.765Z,4.90
2022-11-17T21:59:01.755Z,4.90
2022-11-17T22:04:04.486Z,6.90
2022-11-17T22:09:07.289Z,5.90
2022-11-17T22:14:14.162Z,4.30
2022-11-17T22:19:17.025Z,5.00
2022-11-17T22:24:19.431Z,4.50
2022-11-17T22:29:22.657Z,5.20
2022-11-17T22:34:23.933Z,5.50
2022-11-17T22:39:25.673Z,3.80
2022-11-17T22:44:28.496Z,3.80
2022-11-17T22:49:30.340Z,4.80
2022-11-17T22:54:32.025Z,3.80
2022-11-17T22:59:33.125Z,3.80
2022-11-17T23:09:35.322Z,4.80
2022-11-17T23:14:37.642Z,4.10
2022-11-17T23:19:38.778Z,3.70
2022-11-17T23:29:43.396Z,3.40
2022-11-17T23:39:45.800Z,4.60
2022-11-17T23:44:47.007Z,3.50
2022-11-17T23:49:48.145Z,4.40
2022-11-17T23:54:49.229Z,4.30
2022-11-17T23:59:51.021Z,5.70
